sensor_id;sensor_type;location;lat;lon;timestamp;temperature;humidity
12504;DHT22;6316;48.118;-1.690;2023-08-30T15:55:33;22.60;99.90
12504;DHT22;6316;48.118;-1.690;2023-08-30T15:57:59;22.60;99.90
12504;DHT22;6316;48.118;-1.690;2023-08-30T16:00:24;22.50;99.90
12504;DHT22;6316;48.118;-1.690;2023-08-30T16:02:50;22.40;99.90
12504;DHT22;6316;48.118;-1.690;2023-08-30T16:05:19;22.40;99.90
12504;DHT22;6316;48.118;-1.690;2023-08-30T16:07:44;22.40;99.90
12504;DHT22;6316;48.118;-1.690;2023-08-30T16:10:10;22.40;99.90
12504;DHT22;6316;48.118;-1.690;2023-08-30T16:12:36;22.40;99.90
12504;DHT22;6316;48.118;-1.690;2023-08-30T16:15:01;22.30;99.90
12504;DHT22;6316;48.118;-1.690;2023-08-30T16:17:27;22.30;99.90
12504;DHT22;6316;48.118;-1.690;2023-08-30T16:19:53;22.30;99.90
12504;DHT22;6316;48.118;-1.690;2023-08-30T16:22:20;22.20;99.90
12504;DHT22;6316;48.118;-1.690;2023-08-30T16:24:45;22.30;99.90
12504;DHT22;6316;48.118;-1.690;2023-08-30T16:27:11;22.30;99.90
12504;DHT22;6316;48.118;-1.690;2023-08-30T16:29:37;22.40;99.90
12504;DHT22;6316;48.118;-1.690;2023-08-30T16:32:03;22.40;99.90
12504;DHT22;6316;48.118;-1.690;2023-08-30T16:34:28;22.30;99.90
12504;DHT22;6316;48.118;-1.690;2023-08-30T16:36:54;22.30;99.90
12504;DHT22;6316;48.118;-1.690;2023-08-30T16:39:20;22.30;99.90
12504;DHT22;6316;48.118;-1.690;2023-08-30T16:41:45;22.40;99.90
12504;DHT22;6316;48.118;-1.690;2023-08-30T16:44:13;22.40;99.90
12504;DHT22;6316;48.118;-1.690;2023-08-30T16:46:39;22.40;99.90
12504;DHT22;6316;48.118;-1.690;2023-08-30T16:49:05;22.40;99.90
12504;DHT22;6316;48.118;-1.690;2023-08-30T16:51:31;22.40;99.90
12504;DHT22;6316;48.118;-1.690;2023-08-30T16:53:58;22.40;99.90
12504;DHT22;6316;48.118;-1.690;2023-08-30T16:56:24;22.30;99.90
12504;DHT22;6316;48.118;-1.690;2023-08-30T16:58:50;22.30;99.90
12504;DHT22;6316;48.118;-1.690;2023-08-30T17:01:15;22.40;99.90
12504;DHT22;6316;48.118;-1.690;2023-08-30T17:03:41;22.40;99.90
12504;DHT22;6316;48.118;-1.690;2023-08-30T17:06:06;22.30;99.90
12504;DHT22;6316;48.118;-1.690;2023-08-30T17:08:33;22.30;99.90
12504;DHT22;6316;48.118;-1.690;2023-08-30T17:11:05;22.20;99.90
12504;DHT22;6316;48.118;-1.690;2023-08-30T17:13:32;22.20;99.90
12504;DHT22;6316;48.118;-1.690;2023-08-30T17:15:59;22.20;99.90
12504;DHT22;6316;48.118;-1.690;2023-08-30T17:18:26;22.20;99.90
12504;DHT22;6316;48.118;-1.690;2023-08-30T17:20:53;22.10;99.90
12504;DHT22;6316;48.118;-1.690;2023-08-30T17:23:20;22.10;99.90
12504;DHT22;6316;48.118;-1.690;2023-08-30T17:25:46;22.10;99.90
12504;DHT22;6316;48.118;-1.690;2023-08-30T17:28:12;22.00;99.90
12504;DHT22;6316;48.118;-1.690;2023-08-30T17:30:38;22.00;99.90
12504;DHT22;6316;48.118;-1.690;2023-08-30T17:33:04;21.90;99.90
12504;DHT22;6316;48.118;-1.690;2023-08-30T17:35:30;21.90;99.90
12504;DHT22;6316;48.118;-1.690;2023-08-30T17:37:59;21.80;99.90
12504;DHT22;6316;48.118;-1.690;2023-08-30T17:40:32;21.80;99.90
12504;DHT22;6316;48.118;-1.690;2023-08-30T17:42:59;21.70;99.90
12504;DHT22;6316;48.118;-1.690;2023-08-30T17:45:25;21.60;99.90
12504;DHT22;6316;48.118;-1.690;2023-08-30T17:47:55;21.50;99.90
12504;DHT22;6316;48.118;-1.690;2023-08-30T17:50:20;21.40;99.90
12504;DHT22;6316;48.118;-1.690;2023-08-30T17:52:46;21.40;99.90
12504;DHT22;6316;48.118;-1.690;2023-08-30T17:55:12;21.30;99.90
12504;DHT22;6316;48.118;-1.690;2023-08-30T17:57:40;21.20;99.90
12504;DHT22;6316;48.118;-1.690;2023-08-30T18:00:08;21.20;99.90
12504;DHT22;6316;48.118;-1.690;2023-08-30T18:02:35;21.10;99.90
12504;DHT22;6316;48.118;-1.690;2023-08-30T18:05:01;21.00;99.90
12504;DHT22;6316;48.118;-1.690;2023-08-30T18:07:34;21.00;99.90
12504;DHT22;6316;48.118;-1.690;2023-08-30T18:10:00;20.90;99.90
12504;DHT22;6316;48.118;-1.690;2023-08-30T18:12:26;20.90;99.90
12504;DHT22;6316;48.118;-1.690;2023-08-30T18:14:51;20.80;99.90
12504;DHT22;6316;48.118;-1.690;2023-08-30T18:17:17;20.80;99.90
12504;DHT22;6316;48.118;-1.690;2023-08-30T18:19:45;20.70;99.90
12504;DHT22;6316;48.118;-1.690;2023-08-30T18:22:11;20.70;99.90
12504;DHT22;6316;48.118;-1.690;2023-08-30T18:24:37;20.60;99.90
12504;DHT22;6316;48.118;-1.690;2023-08-30T18:27:03;20.50;99.90
12504;DHT22;6316;48.118;-1.690;2023-08-30T18:29:30;20.50;99.90
12504;DHT22;6316;48.118;-1.690;2023-08-30T18:31:57;20.40;99.90
12504;DHT22;6316;48.118;-1.690;2023-08-30T18:34:23;20.40;99.90
12504;DHT22;6316;48.118;-1.690;2023-08-30T18:36:49;20.30;99.90
12504;DHT22;6316;48.118;-1.690;2023-08-30T18:39:15;20.30;99.90
12504;DHT22;6316;48.118;-1.690;2023-08-30T18:41:41;20.20;99.90
12504;DHT22;6316;48.118;-1.690;2023-08-30T18:44:07;20.20;99.90
12504;DHT22;6316;48.118;-1.690;2023-08-30T18:46:33;20.10;99.90
12504;DHT22;6316;48.118;-1.690;2023-08-30T18:48:58;20.00;99.90
12504;DHT22;6316;48.118;-1.690;2023-08-30T18:51:24;20.00;99.90
12504;DHT22;6316;48.118;-1.690;2023-08-30T18:53:51;19.90;99.90
12504;DHT22;6316;48.118;-1.690;2023-08-30T18:56:18;19.80;99.90
12504;DHT22;6316;48.118;-1.690;2023-08-30T18:58:44;19.80;99.90
12504;DHT22;6316;48.118;-1.690;2023-08-30T19:01:11;19.70;99.90
12504;DHT22;6316;48.118;-1.690;2023-08-30T19:03:39;19.60;99.90
12504;DHT22;6316;48.118;-1.690;2023-08-30T19:06:04;19.60;99.90
12504;DHT22;6316;48.118;-1.690;2023-08-30T19:08:35;19.50;99.90
12504;DHT22;6316;48.118;-1.690;2023-08-30T19:11:03;19.40;99.90
12504;DHT22;6316;48.118;-1.690;2023-08-30T19:13:29;19.40;99.90
12504;DHT22;6316;48.118;-1.690;2023-08-30T19:15:55;19.40;99.90
12504;DHT22;6316;48.118;-1.690;2023-08-30T19:18:21;19.30;99.90
12504;DHT22;6316;48.118;-1.690;2023-08-30T19:20:47;19.30;99.90
12504;DHT22;6316;48.118;-1.690;2023-08-30T19:23:19;19.20;99.90
12504;DHT22;6316;48.118;-1.690;2023-08-30T19:25:48;19.20;99.90
12504;DHT22;6316;48.118;-1.690;2023-08-30T19:28:16;19.20;99.90
12504;DHT22;6316;48.118;-1.690;2023-08-30T19:30:43;19.20;99.90
12504;DHT22;6316;48.118;-1.690;2023-08-30T19:33:09;19.20;99.90
12504;DHT22;6316;48.118;-1.690;2023-08-30T19:35:37;19.20;99.90
12504;DHT22;6316;48.118;-1.690;2023-08-30T19:38:06;19.20;99.90
12504;DHT22;6316;48.118;-1.690;2023-08-30T19:40:32;19.20;99.90
12504;DHT22;6316;48.118;-1.690;2023-08-30T19:42:58;19.20;99.90
12504;DHT22;6316;48.118;-1.690;2023-08-30T19:45:24;19.20;99.90
12504;DHT22;6316;48.118;-1.690;2023-08-30T19:47:50;19.20;99.90
12504;DHT22;6316;48.118;-1.690;2023-08-30T19:50:16;19.10;99.90
12504;DHT22;6316;48.118;-1.690;2023-08-30T19:52:47;19.10;99.90
12504;DHT22;6316;48.118;-1.690;2023-08-30T19:55:14;19.10;99.90
12504;DHT22;6316;48.118;-1.690;2023-08-30T19:57:40;19.10;99.90
12504;DHT22;6316;48.118;-1.690;2023-08-30T20:00:08;19.10;99.90
12504;DHT22;6316;48.118;-1.690;2023-08-30T20:02:35;19.10;99.90
12504;DHT22;6316;48.118;-1.690;2023-08-30T20:05:01;19.10;99.90
12504;DHT22;6316;48.118;-1.690;2023-08-30T20:07:28;19.10;99.90
12504;DHT22;6316;48.118;-1.690;2023-08-30T20:09:54;19.10;99.90
12504;DHT22;6316;48.118;-1.690;2023-08-30T20:12:21;19.20;99.90
12504;DHT22;6316;48.118;-1.690;2023-08-30T20:14:49;19.20;99.90
12504;DHT22;6316;48.118;-1.690;2023-08-30T20:17:15;19.20;99.90
12504;DHT22;6316;48.118;-1.690;2023-08-30T20:19:41;19.20;99.90
12504;DHT22;6316;48.118;-1.690;2023-08-30T20:22:06;19.20;99.90
12504;DHT22;6316;48.118;-1.690;2023-08-30T20:24:35;19.20;99.90
12504;DHT22;6316;48.118;-1.690;2023-08-30T20:27:01;19.20;99.90
12504;DHT22;6316;48.118;-1.690;2023-08-30T20:29:27;19.10;99.90
12504;DHT22;6316;48.118;-1.690;2023-08-30T20:31:53;19.20;99.90
12504;DHT22;6316;48.118;-1.690;2023-08-30T20:34:18;19.10;99.90
12504;DHT22;6316;48.118;-1.690;2023-08-30T20:36:44;19.10;99.90
12504;DHT22;6316;48.118;-1.690;2023-08-30T20:39:10;19.10;99.90
12504;DHT22;6316;48.118;-1.690;2023-08-30T20:41:37;19.10;99.90
12504;DHT22;6316;48.118;-1.690;2023-08-30T20:44:03;19.10;99.90
12504;DHT22;6316;48.118;-1.690;2023-08-30T20:46:29;19.10;99.90
12504;DHT22;6316;48.118;-1.690;2023-08-30T20:48:55;19.10;99.90
12504;DHT22;6316;48.118;-1.690;2023-08-30T20:51:21;19.10;99.90
12504;DHT22;6316;48.118;-1.690;2023-08-30T20:53:47;19.10;99.90
12504;DHT22;6316;48.118;-1.690;2023-08-30T20:56:14;19.10;99.90
12504;DHT22;6316;48.118;-1.690;2023-08-30T20:58:42;19.00;99.90
12504;DHT22;6316;48.118;-1.690;2023-08-30T21:01:10;19.00;99.90
12504;DHT22;6316;48.118;-1.690;2023-08-30T21:03:37;19.00;99.90
12504;DHT22;6316;48.118;-1.690;2023-08-30T21:06:03;18.90;99.90
12504;DHT22;6316;48.118;-1.690;2023-08-30T21:08:29;19.00;99.90
12504;DHT22;6316;48.118;-1.690;2023-08-30T21:10:55;18.90;99.90
12504;DHT22;6316;48.118;-1.690;2023-08-30T21:13:21;18.90;99.90
12504;DHT22;6316;48.118;-1.690;2023-08-30T21:15:47;18.90;99.90
12504;DHT22;6316;48.118;-1.690;2023-08-30T21:18:13;18.90;99.90
12504;DHT22;6316;48.118;-1.690;2023-08-30T21:20:39;18.80;99.90
12504;DHT22;6316;48.118;-1.690;2023-08-30T21:23:05;18.80;99.90
12504;DHT22;6316;48.118;-1.690;2023-08-30T21:25:40;18.80;99.90
12504;DHT22;6316;48.118;-1.690;2023-08-30T21:28:07;18.80;99.90
12504;DHT22;6316;48.118;-1.690;2023-08-30T21:30:37;18.70;99.90
12504;DHT22;6316;48.118;-1.690;2023-08-30T21:33:04;18.70;99.90
12504;DHT22;6316;48.118;-1.690;2023-08-30T21:35:29;18.70;99.90
12504;DHT22;6316;48.118;-1.690;2023-08-30T21:37:55;18.70;99.90
12504;DHT22;6316;48.118;-1.690;2023-08-30T21:40:21;18.60;99.90
12504;DHT22;6316;48.118;-1.690;2023-08-30T21:42:46;18.60;99.90
12504;DHT22;6316;48.118;-1.690;2023-08-30T21:45:12;18.50;99.90
12504;DHT22;6316;48.118;-1.690;2023-08-30T21:47:38;18.40;99.90
12504;DHT22;6316;48.118;-1.690;2023-08-30T21:50:04;18.40;99.90
12504;DHT22;6316;48.118;-1.690;2023-08-30T21:52:29;18.40;99.90
12504;DHT22;6316;48.118;-1.690;2023-08-30T21:54:55;18.30;99.90
12504;DHT22;6316;48.118;-1.690;2023-08-30T21:57:21;18.30;99.90
12504;DHT22;6316;48.118;-1.690;2023-08-30T21:59:47;18.30;99.90
12504;DHT22;6316;48.118;-1.690;2023-08-30T22:02:12;18.20;99.90
12504;DHT22;6316;48.118;-1.690;2023-08-30T22:04:39;18.10;99.90
12504;DHT22;6316;48.118;-1.690;2023-08-30T22:07:06;18.10;99.90
12504;DHT22;6316;48.118;-1.690;2023-08-30T22:09:32;18.10;99.90
12504;DHT22;6316;48.118;-1.690;2023-08-30T22:11:59;18.00;99.90
12504;DHT22;6316;48.118;-1.690;2023-08-30T22:14:25;17.90;99.90
12504;DHT22;6316;48.118;-1.690;2023-08-30T22:16:50;17.90;99.90
12504;DHT22;6316;48.118;-1.690;2023-08-30T22:19:16;17.90;99.90
12504;DHT22;6316;48.118;-1.690;2023-08-30T22:21:45;17.80;99.90
12504;DHT22;6316;48.118;-1.690;2023-08-30T22:24:12;17.80;99.90
12504;DHT22;6316;48.118;-1.690;2023-08-30T22:26:37;17.80;99.90
12504;DHT22;6316;48.118;-1.690;2023-08-30T22:29:03;17.70;99.90
12504;DHT22;6316;48.118;-1.690;2023-08-30T22:31:29;17.70;99.90
12504;DHT22;6316;48.118;-1.690;2023-08-30T22:33:54;17.70;99.90
12504;DHT22;6316;48.118;-1.690;2023-08-30T22:36:20;17.60;99.90
12504;DHT22;6316;48.118;-1.690;2023-08-30T22:38:47;17.60;99.90
12504;DHT22;6316;48.118;-1.690;2023-08-30T22:41:14;17.50;99.90
12504;DHT22;6316;48.118;-1.690;2023-08-30T22:43:39;17.50;99.90
12504;DHT22;6316;48.118;-1.690;2023-08-30T22:46:05;17.50;99.90
12504;DHT22;6316;48.118;-1.690;2023-08-30T22:48:31;17.50;99.90
12504;DHT22;6316;48.118;-1.690;2023-08-30T22:51:01;17.40;99.90
12504;DHT22;6316;48.118;-1.690;2023-08-30T22:53:29;17.40;99.90
12504;DHT22;6316;48.118;-1.690;2023-08-30T22:56:01;17.40;99.90
12504;DHT22;6316;48.118;-1.690;2023-08-30T22:58:26;17.30;99.90
12504;DHT22;6316;48.118;-1.690;2023-08-30T23:00:52;17.30;99.90
12504;DHT22;6316;48.118;-1.690;2023-08-30T23:03:18;17.20;99.90
12504;DHT22;6316;48.118;-1.690;2023-08-30T23:05:44;17.20;99.90
12504;DHT22;6316;48.118;-1.690;2023-08-30T23:08:10;17.20;99.90
12504;DHT22;6316;48.118;-1.690;2023-08-30T23:10:36;17.10;99.90
12504;DHT22;6316;48.118;-1.690;2023-08-30T23:13:02;17.10;99.90
12504;DHT22;6316;48.118;-1.690;2023-08-30T23:15:28;17.10;99.90
12504;DHT22;6316;48.118;-1.690;2023-08-30T23:17:53;17.00;99.90
12504;DHT22;6316;48.118;-1.690;2023-08-30T23:20:21;17.00;99.90
12504;DHT22;6316;48.118;-1.690;2023-08-30T23:22:47;17.00;99.90
12504;DHT22;6316;48.118;-1.690;2023-08-30T23:25:13;17.00;99.90
12504;DHT22;6316;48.118;-1.690;2023-08-30T23:27:38;17.00;99.90
12504;DHT22;6316;48.118;-1.690;2023-08-30T23:30:04;17.00;99.90
12504;DHT22;6316;48.118;-1.690;2023-08-30T23:32:34;16.90;99.90
12504;DHT22;6316;48.118;-1.690;2023-08-30T23:35:00;16.90;99.90
12504;DHT22;6316;48.118;-1.690;2023-08-30T23:37:26;16.90;99.90
12504;DHT22;6316;48.118;-1.690;2023-08-30T23:39:52;16.90;99.90
12504;DHT22;6316;48.118;-1.690;2023-08-30T23:42:19;16.90;99.90
12504;DHT22;6316;48.118;-1.690;2023-08-30T23:44:44;16.90;99.90
12504;DHT22;6316;48.118;-1.690;2023-08-30T23:47:11;16.90;99.90
12504;DHT22;6316;48.118;-1.690;2023-08-30T23:49:38;16.90;99.90
12504;DHT22;6316;48.118;-1.690;2023-08-30T23:52:04;16.90;99.90
12504;DHT22;6316;48.118;-1.690;2023-08-30T23:54:29;17.00;99.90
12504;DHT22;6316;48.118;-1.690;2023-08-30T23:56:55;17.00;99.90
12504;DHT22;6316;48.118;-1.690;2023-08-30T23:59:21;17.00;99.90
